Time;durP1;ratioP1;P1;durP2;ratioP2;P2;SDS_P1;SDS_P2;PMS_P1;PMS_P2;Temp;Humidity;BMP_temperature;BMP_pressure;BME280_temperature;BME280_humidity;BME280_pressure;Samples;Min_cycle;Max_cycle;Signal;HPM_P1;HPM_P2
2023/12/20 00:01:22;;;;;;;17.50;2.85;;;;;;;6.56;100.00;101546.38;5025406;28;20068;-74
2023/12/20 00:03:47;;;;;;;13.45;2.75;;;;;;;6.56;100.00;101546.38;5030818;28;20034;-74
2023/12/20 00:06:13;;;;;;;16.95;3.35;;;;;;;6.53;100.00;101541.34;5030091;28;20038;-74
2023/12/20 00:08:38;;;;;;;15.35;3.60;;;;;;;6.51;100.00;101549.00;5024766;28;20056;-74
2023/12/20 00:11:04;;;;;;;12.90;3.33;;;;;;;6.46;100.00;101547.81;5028534;28;20037;-74
2023/12/20 00:13:29;;;;;;;19.35;2.75;;;;;;;6.45;100.00;101548.88;5029191;28;20106;-74
2023/12/20 00:15:55;;;;;;;11.70;2.50;;;;;;;6.44;100.00;101547.22;5032533;28;20095;-74
2023/12/20 00:18:20;;;;;;;13.05;3.33;;;;;;;6.36;100.00;101550.34;5029344;28;20041;-74
2023/12/20 00:20:45;;;;;;;14.35;3.00;;;;;;;6.31;100.00;101552.97;5031301;28;20029;-74
2023/12/20 00:23:11;;;;;;;15.45;2.97;;;;;;;6.34;100.00;101557.19;5029958;28;20573;-74
2023/12/20 00:25:36;;;;;;;14.50;3.78;;;;;;;6.30;100.00;101562.34;5031091;28;20036;-74
2023/12/20 00:28:03;;;;;;;13.60;2.95;;;;;;;6.31;100.00;101560.41;5029263;28;20539;-74
2023/12/20 00:30:28;;;;;;;8.18;2.33;;;;;;;6.22;100.00;101560.78;5024553;28;20033;-74
2023/12/20 00:32:55;;;;;;;11.77;2.30;;;;;;;6.14;100.00;101565.81;5029093;28;20042;-73
2023/12/20 00:35:21;;;;;;;10.18;2.75;;;;;;;6.13;100.00;101559.47;5028534;28;20692;-74
2023/12/20 00:37:46;;;;;;;12.60;2.42;;;;;;;6.09;100.00;101561.00;5027636;28;20034;-74
2023/12/20 00:40:12;;;;;;;12.63;2.42;;;;;;;6.07;100.00;101565.91;5030887;28;20037;-74
2023/12/20 00:42:37;;;;;;;6.55;1.88;;;;;;;6.01;100.00;101577.91;5032363;28;20029;-74
2023/12/20 00:45:04;;;;;;;10.40;2.40;;;;;;;5.99;100.00;101578.16;5032141;28;20030;-74
2023/12/20 00:47:30;;;;;;;9.38;1.92;;;;;;;5.94;100.00;101577.19;5029143;28;20033;-74
2023/12/20 00:49:56;;;;;;;10.57;1.98;;;;;;;5.91;100.00;101575.72;5037042;28;20394;-74
2023/12/20 00:52:22;;;;;;;10.48;1.95;;;;;;;5.85;100.00;101590.44;5031974;28;20036;-74
2023/12/20 00:54:48;;;;;;;12.25;2.10;;;;;;;5.85;100.00;101570.28;5023815;28;20041;-74
2023/12/20 00:57:13;;;;;;;10.70;2.42;;;;;;;5.78;100.00;101584.19;5026520;28;20057;-74
2023/12/20 00:59:39;;;;;;;14.02;2.35;;;;;;;5.76;100.00;101580.81;5029522;28;20025;-74
2023/12/20 01:02:04;;;;;;;10.20;2.40;;;;;;;5.74;100.00;101580.22;5031771;28;20085;-74
2023/12/20 01:04:30;;;;;;;9.98;1.95;;;;;;;5.70;100.00;101579.00;5030772;28;20029;-74
2023/12/20 01:06:56;;;;;;;8.65;1.92;;;;;;;5.67;100.00;101574.81;5025579;28;20044;-74
2023/12/20 01:09:26;;;;;;;16.52;2.30;;;;;;;5.60;100.00;101572.16;5028390;28;20025;-74
2023/12/20 01:11:52;;;;;;;6.20;2.00;;;;;;;5.56;100.00;101573.69;5028774;28;20032;-74
2023/12/20 01:14:17;;;;;;;10.90;2.10;;;;;;;5.56;100.00;101573.69;5027819;28;20058;-74
2023/12/20 01:16:42;;;;;;;9.77;1.67;;;;;;;5.55;100.00;101580.28;5030224;28;20034;-74
2023/12/20 01:19:08;;;;;;;7.53;1.90;;;;;;;5.44;100.00;101585.75;5026250;28;20046;-74
2023/12/20 01:21:33;;;;;;;11.30;1.90;;;;;;;5.38;100.00;101584.78;5029069;28;20037;-74
2023/12/20 01:23:59;;;;;;;8.68;1.73;;;;;;;5.35;100.00;101583.34;5029225;28;20030;-74
2023/12/20 01:26:25;;;;;;;9.85;2.10;;;;;;;5.34;100.00;101578.03;5028621;28;20123;-74
2023/12/20 01:28:50;;;;;;;7.10;2.22;;;;;;;5.34;100.00;101591.81;5037215;28;20029;-74
2023/12/20 01:31:16;;;;;;;6.13;1.70;;;;;;;5.31;100.00;101582.09;5037181;28;20431;-73
2023/12/20 01:33:41;;;;;;;10.60;1.90;;;;;;;5.28;100.00;101587.25;5037081;28;20033;-74
2023/12/20 01:36:07;;;;;;;8.95;1.70;;;;;;;5.24;100.00;101592.38;5037117;28;20037;-73
2023/12/20 01:38:33;;;;;;;9.23;2.00;;;;;;;5.24;100.00;101592.38;5019622;28;20093;-74
2023/12/20 01:40:59;;;;;;;8.18;1.83;;;;;;;5.18;100.00;101586.94;5035955;28;20402;-73
2023/12/20 01:43:24;;;;;;;8.65;1.77;;;;;;;5.15;100.00;101596.50;5036856;28;20029;-73
2023/12/20 01:45:50;;;;;;;8.90;1.80;;;;;;;5.14;100.00;101595.69;5036956;28;20516;-74
2023/12/20 01:48:16;;;;;;;9.27;1.80;;;;;;;5.11;100.00;101592.56;5035279;28;20033;-74
2023/12/20 01:50:43;;;;;;;10.82;1.85;;;;;;;5.12;100.00;101597.81;5039661;28;20029;-74
2023/12/20 01:53:09;;;;;;;9.73;2.30;;;;;;;5.09;100.00;101603.78;5036678;28;20065;-74
2023/12/20 01:55:35;;;;;;;8.43;1.88;;;;;;;5.06;100.00;101607.00;5019183;28;20025;-74
2023/12/20 01:58:00;;;;;;;9.05;1.80;;;;;;;5.03;100.00;101596.44;5035382;28;20037;-74
2023/12/20 02:00:27;;;;;;;8.07;1.52;;;;;;;5.01;100.00;101598.59;5036799;28;20030;-74
2023/12/20 02:02:55;;;;;;;9.77;2.30;;;;;;;4.98;100.00;101595.47;5029523;28;20053;-74
2023/12/20 02:05:22;;;;;;;6.47;1.63;;;;;;;4.92;100.00;101600.81;5033587;28;20022;-74
2023/12/20 02:07:47;;;;;;;9.27;1.92;;;;;;;4.91;100.00;101610.16;5048304;28;20029;-74
2023/12/20 02:10:13;;;;;;;15.00;2.10;;;;;;;4.89;100.00;101592.19;5018956;28;20607;-74
2023/12/20 02:12:38;;;;;;;7.03;1.65;;;;;;;4.86;100.00;101600.91;5036547;28;20044;-74
2023/12/20 02:15:05;;;;;;;8.23;1.90;;;;;;;4.88;100.00;101609.78;5031903;28;20030;-74
2023/12/20 02:17:31;;;;;;;8.35;1.92;;;;;;;4.84;100.00;101603.03;5035666;28;20108;-74
2023/12/20 02:19:56;;;;;;;8.65;2.13;;;;;;;4.87;100.00;101610.84;5034843;28;20083;-74
2023/12/20 02:22:22;;;;;;;7.97;1.60;;;;;;;4.90;100.00;101613.13;5035763;28;20474;-74
2023/12/20 02:24:47;;;;;;;8.00;2.10;;;;;;;4.88;100.00;101615.28;5036232;28;20021;-73
2023/12/20 02:27:13;;;;;;;4.53;1.70;;;;;;;4.85;100.00;101632.25;5036233;28;20034;-74
2023/12/20 02:29:38;;;;;;;8.27;1.90;;;;;;;4.90;100.00;101635.16;5035138;28;20037;-74
2023/12/20 02:32:04;;;;;;;9.80;1.95;;;;;;;4.97;100.00;101635.94;5035954;28;20029;-74
2023/12/20 02:34:29;;;;;;;9.10;1.95;;;;;;;5.00;100.00;101642.88;5036237;28;20049;-74
2023/12/20 02:36:55;;;;;;;6.95;2.10;;;;;;;4.96;100.00;101633.38;5036088;28;20115;-74
2023/12/20 02:39:21;;;;;;;8.15;1.90;;;;;;;5.00;100.00;101626.38;5036308;28;20083;-74
2023/12/20 02:41:47;;;;;;;6.63;2.45;;;;;;;5.04;100.00;101616.56;5018374;28;20044;-74
2023/12/20 02:44:12;;;;;;;8.55;1.42;;;;;;;5.04;100.00;101609.16;5034955;28;20029;-73
2023/12/20 02:46:38;;;;;;;14.77;1.98;;;;;;;5.09;100.00;101603.78;5035753;28;20034;-74
2023/12/20 02:49:03;;;;;;;7.93;1.73;;;;;;;5.11;100.00;101604.41;5036105;28;20029;-74
2023/12/20 02:51:28;;;;;;;9.93;1.92;;;;;;;5.14;100.00;101603.09;5037570;28;20029;-74
2023/12/20 02:53:54;;;;;;;7.07;1.98;;;;;;;5.18;100.00;101606.22;5036039;28;20044;-74
2023/12/20 02:56:19;;;;;;;6.22;1.73;;;;;;;5.18;100.00;101600.72;5035975;28;20482;-74
2023/12/20 02:58:45;;;;;;;11.02;1.98;;;;;;;5.20;100.00;101595.81;5035926;28;20033;-74
2023/12/20 03:01:10;;;;;;;10.38;1.90;;;;;;;5.20;100.00;101590.31;5035687;28;20393;-74
2023/12/20 03:03:36;;;;;;;6.90;1.73;;;;;;;5.20;100.00;101598.59;5035981;28;20081;-74
2023/12/20 03:06:02;;;;;;;11.48;4.22;;;;;;;5.22;100.00;101593.69;5037987;28;20033;-74
2023/12/20 03:08:28;;;;;;;8.60;5.53;;;;;;;5.17;100.00;101601.81;5042657;28;20041;-74
2023/12/20 03:10:53;;;;;;;12.57;5.82;;;;;;;5.14;100.00;101603.94;5035712;28;20036;-74
2023/12/20 03:13:19;;;;;;;11.40;4.93;;;;;;;5.09;100.00;101606.53;5031857;28;20033;-74
2023/12/20 03:15:45;;;;;;;13.90;5.40;;;;;;;5.10;100.00;101610.16;5035448;28;20033;-74
2023/12/20 03:18:11;;;;;;;11.98;5.00;;;;;;;5.04;100.00;101614.69;5033441;28;20033;-74
2023/12/20 03:20:36;;;;;;;12.68;5.00;;;;;;;5.00;100.00;101602.41;5034605;28;20060;-74
2023/12/20 03:23:02;;;;;;;10.25;4.60;;;;;;;4.98;100.00;101609.22;5035771;28;20030;-74
2023/12/20 03:25:27;;;;;;;10.60;4.18;;;;;;;4.92;100.00;101602.72;5035545;28;20021;-74
2023/12/20 03:27:53;;;;;;;11.70;4.18;;;;;;;4.89;100.00;101600.44;5033163;28;20048;-74
2023/12/20 03:30:18;;;;;;;7.90;3.67;;;;;;;4.91;100.00;101614.81;5027252;28;20030;-73
2023/12/20 03:32:44;;;;;;;11.68;4.05;;;;;;;4.87;100.00;101610.84;5037395;28;20112;-74
2023/12/20 03:35:10;;;;;;;9.98;3.55;;;;;;;4.83;100.00;101607.69;5038087;28;20407;-73
2023/12/20 03:37:35;;;;;;;10.73;3.63;;;;;;;4.76;100.00;101606.94;5039455;28;20029;-74
2023/12/20 03:40:01;;;;;;;8.90;3.53;;;;;;;4.75;100.00;101605.25;5039341;28;20021;-73
2023/12/20 03:42:27;;;;;;;8.75;3.60;;;;;;;4.70;100.00;101603.19;5038413;28;20047;-74
2023/12/20 03:44:52;;;;;;;6.68;3.08;;;;;;;4.65;100.00;101602.19;5039241;28;20026;-74
2023/12/20 03:47:18;;;;;;;5.88;2.60;;;;;;;4.64;100.00;101598.59;5038936;28;20040;-74
2023/12/20 03:49:43;;;;;;;8.38;2.72;;;;;;;4.59;100.00;101603.09;5039729;28;20482;-73
2023/12/20 03:52:09;;;;;;;5.80;2.60;;;;;;;4.54;100.00;101598.28;5041392;28;20034;-74
2023/12/20 03:54:37;;;;;;;10.23;2.72;;;;;;;4.51;100.00;101601.47;5038970;28;20037;-73
2023/12/20 03:57:05;;;;;;;8.00;2.80;;;;;;;4.48;100.00;101600.03;5037958;28;20095;-74
2023/12/20 03:59:35;;;;;;;11.32;2.88;;;;;;;4.42;100.00;101598.19;5038923;28;20037;-74
2023/12/20 04:02:00;;;;;;;11.98;3.67;;;;;;;4.38;100.00;101605.22;5037373;28;20037;-74
2023/12/20 04:04:25;;;;;;;6.53;2.70;;;;;;;4.38;100.00;101596.13;5021149;28;20036;-74
2023/12/20 04:06:51;;;;;;;9.52;3.10;;;;;;;4.38;100.00;101594.22;5049163;28;20025;-74
2023/12/20 04:09:16;;;;;;;11.77;3.03;;;;;;;4.34;100.00;101581.13;5040327;28;20029;-73
2023/12/20 04:11:42;;;;;;;13.13;3.17;;;;;;;4.30;100.00;101585.41;5037658;28;20037;-73
2023/12/20 04:14:07;;;;;;;12.60;3.40;;;;;;;4.30;100.00;101585.41;5032775;28;20040;-73
2023/12/20 04:16:33;;;;;;;8.27;3.08;;;;;;;4.27;100.00;101594.13;5040654;28;20052;-73
2023/12/20 04:18:58;;;;;;;9.13;2.83;;;;;;;4.28;100.00;101587.53;5020404;28;20132;-74
2023/12/20 04:21:24;;;;;;;5.57;2.38;;;;;;;4.24;100.00;101598.16;5037502;28;20045;-74
2023/12/20 04:23:49;;;;;;;6.68;2.95;;;;;;;4.18;100.00;101597.16;5038459;28;20029;-73
2023/12/20 04:26:15;;;;;;;8.27;2.67;;;;;;;4.16;100.00;101596.53;5037051;28;20080;-73
2023/12/20 04:28:40;;;;;;;7.03;2.60;;;;;;;4.12;100.00;101594.44;5038371;28;20390;-74
2023/12/20 04:31:06;;;;;;;9.07;2.60;;;;;;;4.10;100.00;101597.44;5038276;28;20029;-74
2023/12/20 04:33:31;;;;;;;7.25;2.50;;;;;;;4.08;100.00;101593.22;5038243;28;20037;-74
2023/12/20 04:35:57;;;;;;;8.27;2.55;;;;;;;4.12;100.00;101603.53;5038452;28;20033;-74
2023/12/20 04:38:23;;;;;;;7.88;2.58;;;;;;;4.09;100.00;101592.97;5014425;28;20068;-74
2023/12/20 04:40:48;;;;;;;7.07;2.55;;;;;;;4.08;100.00;101604.22;5022365;28;20037;-73
2023/12/20 04:43:14;;;;;;;8.55;2.65;;;;;;;4.10;100.00;101610.34;5014396;28;20030;-73
2023/12/20 04:45:39;;;;;;;5.80;2.10;;;;;;;4.08;100.00;101607.81;5029063;28;20355;-73
2023/12/20 04:48:05;;;;;;;7.88;2.30;;;;;;;4.08;100.00;101616.06;5029302;28;20083;-74
2023/12/20 04:50:30;;;;;;;5.22;2.35;;;;;;;4.07;100.00;101608.88;5034489;28;20040;-74
2023/12/20 04:52:56;;;;;;;9.15;2.08;;;;;;;4.07;100.00;101619.00;5031267;28;20029;-74
2023/12/20 04:55:21;;;;;;;6.45;2.22;;;;;;;4.10;100.00;101619.44;5019855;28;20034;-73
2023/12/20 04:57:47;;;;;;;6.68;2.03;;;;;;;4.13;100.00;101616.22;5029161;28;20465;-73
2023/12/20 05:00:14;;;;;;;5.22;1.95;;;;;;;4.13;100.00;101604.41;5026064;28;20041;-74
2023/12/20 05:02:39;;;;;;;7.10;2.33;;;;;;;4.15;100.00;101603.09;5025486;28;20053;-74
2023/12/20 05:05:05;;;;;;;8.68;2.55;;;;;;;4.20;100.00;101602.41;5025159;28;20037;-74
2023/12/20 05:07:30;;;;;;;6.90;2.13;;;;;;;4.22;100.00;101612.13;5029891;28;20508;-74
2023/12/20 05:09:56;;;;;;;8.38;2.58;;;;;;;4.27;100.00;101613.38;5029776;28;20099;-74
2023/12/20 05:12:21;;;;;;;11.82;3.08;;;;;;;4.31;100.00;101618.19;5029122;28;20044;-74
2023/12/20 05:14:46;;;;;;;5.45;2.10;;;;;;;4.32;100.00;101614.38;5028606;28;20494;-73
2023/12/20 05:17:12;;;;;;;8.23;2.33;;;;;;;4.33;100.00;101609.72;5027297;28;20038;-74
2023/12/20 05:19:37;;;;;;;7.97;2.60;;;;;;;4.32;100.00;101614.38;5029453;28;20072;-73
2023/12/20 05:22:03;;;;;;;6.00;2.15;;;;;;;4.38;100.00;101618.97;5032940;28;20030;-74
2023/12/20 05:24:29;;;;;;;10.35;2.40;;;;;;;4.32;100.00;101616.25;5025326;28;20501;-74
2023/12/20 05:26:54;;;;;;;10.15;2.30;;;;;;;4.33;100.00;101626.22;5033498;28;20052;-74
2023/12/20 05:29:20;;;;;;;9.95;3.10;;;;;;;4.31;100.00;101628.34;5037378;28;20037;-74
2023/12/20 05:31:45;;;;;;;5.60;2.10;;;;;;;4.28;100.00;101629.63;5035824;28;20025;-74
2023/12/20 05:34:11;;;;;;;7.28;2.15;;;;;;;4.20;100.00;101625.25;5037184;28;20060;-74
2023/12/20 05:36:36;;;;;;;7.82;2.00;;;;;;;4.16;100.00;101635.03;5037076;28;20063;-74
2023/12/20 05:39:03;;;;;;;6.78;2.25;;;;;;;4.13;100.00;101627.22;5033049;28;20120;-73
2023/12/20 05:41:29;;;;;;;7.97;2.28;;;;;;;4.10;100.00;101637.84;5025635;28;20076;-74
2023/12/20 05:43:55;;;;;;;4.45;1.50;;;;;;;4.14;100.00;101630.81;5032013;28;20037;-74
2023/12/20 05:46:21;;;;;;;6.22;1.90;;;;;;;4.14;100.00;101630.81;5027532;28;20079;-74
2023/12/20 05:48:47;;;;;;;5.90;1.65;;;;;;;4.18;100.00;101643.03;5026727;28;20060;-74
2023/12/20 05:51:13;;;;;;;8.20;2.20;;;;;;;4.18;100.00;101643.03;5042866;28;20425;-74
2023/12/20 05:53:38;;;;;;;7.88;2.05;;;;;;;4.15;100.00;101638.84;5027326;28;20036;-73
2023/12/20 05:56:04;;;;;;;7.15;1.95;;;;;;;4.13;100.00;101634.63;5028052;28;20088;-74
2023/12/20 05:58:29;;;;;;;7.13;2.33;;;;;;;4.12;100.00;101636.53;5028131;28;20030;-73
2023/12/20 06:00:55;;;;;;;8.65;1.88;;;;;;;4.14;100.00;101634.41;5028118;28;20037;-74
2023/12/20 06:03:20;;;;;;;3.70;1.55;;;;;;;4.10;100.00;101627.69;5061430;28;20129;-74
2023/12/20 06:05:46;;;;;;;9.07;2.33;;;;;;;4.12;100.00;101627.44;5036773;28;20034;-74
2023/12/20 06:08:12;;;;;;;7.15;2.03;;;;;;;4.07;100.00;101628.13;5045384;28;20033;-73
2023/12/20 06:10:37;;;;;;;4.60;1.80;;;;;;;4.07;100.00;101630.00;5036628;28;20402;-74
2023/12/20 06:13:04;;;;;;;4.40;1.80;;;;;;;4.03;100.00;101629.63;5034529;28;20038;-73
2023/12/20 06:15:30;;;;;;;5.90;1.98;;;;;;;4.01;100.00;101626.25;5067950;28;20471;-73
2023/12/20 06:17:55;;;;;;;9.88;2.55;;;;;;;3.99;100.00;101628.41;5034374;28;20056;-74
2023/12/20 06:20:21;;;;;;;7.80;2.53;;;;;;;3.98;100.00;101637.69;5036243;28;20053;-74
2023/12/20 06:22:46;;;;;;;9.15;2.45;;;;;;;3.91;100.00;101647.91;5036472;28;20038;-73
2023/12/20 06:25:12;;;;;;;8.32;3.22;;;;;;;3.87;100.00;101642.00;5035968;28;20021;-74
2023/12/20 06:27:38;;;;;;;10.48;2.90;;;;;;;3.87;100.00;101652.97;5036448;28;20060;-74
2023/12/20 06:30:04;;;;;;;7.00;2.35;;;;;;;3.84;100.00;101650.69;5036182;28;20026;-74
2023/12/20 06:32:30;;;;;;;9.48;2.30;;;;;;;3.81;100.00;101662.97;5036179;28;20716;-74
2023/12/20 06:34:55;;;;;;;7.10;2.47;;;;;;;3.80;100.00;101666.78;5036168;28;20033;-74
2023/12/20 06:37:21;;;;;;;7.40;2.47;;;;;;;3.81;100.00;101660.22;5036264;28;20184;-74
2023/12/20 06:39:46;;;;;;;9.10;2.30;;;;;;;3.84;100.00;101667.16;5036216;28;20063;-73
2023/12/20 06:42:12;;;;;;;6.93;2.10;;;;;;;3.84;100.00;101669.09;5002026;28;20104;-73
2023/12/20 06:44:38;;;;;;;8.27;2.45;;;;;;;3.90;100.00;101668.19;5036164;28;20045;-74
2023/12/20 06:47:04;;;;;;;5.75;2.15;;;;;;;3.85;100.00;101674.38;5035881;28;20029;-74
2023/12/20 06:49:30;;;;;;;6.65;2.15;;;;;;;3.90;100.00;101680.06;5036062;28;20160;-74
2023/12/20 06:51:55;;;;;;;6.50;2.25;;;;;;;3.91;100.00;101684.47;5038851;28;20033;-74
2023/12/20 06:54:21;;;;;;;4.97;2.00;;;;;;;3.95;100.00;101687.63;5035772;28;20036;-73
2023/12/20 06:56:47;;;;;;;5.90;2.10;;;;;;;3.93;100.00;101687.00;5036158;28;20068;-73
2023/12/20 06:59:12;;;;;;;3.63;1.52;;;;;;;4.00;100.00;101682.31;5034922;28;20359;-74
2023/12/20 07:01:38;;;;;;;7.68;2.17;;;;;;;3.98;100.00;101677.03;5035842;28;20084;-74
2023/12/20 07:04:03;;;;;;;7.13;2.05;;;;;;;4.01;100.00;101676.59;5034490;28;20084;-73
2023/12/20 07:06:29;;;;;;;7.35;2.10;;;;;;;4.01;100.00;101676.59;5042059;28;20025;-74
2023/12/20 07:08:54;;;;;;;3.78;1.83;;;;;;;3.99;100.00;101672.38;5043376;28;20035;-74
2023/12/20 07:11:19;;;;;;;9.50;2.05;;;;;;;3.93;100.00;101684.28;5040090;28;20029;-74
2023/12/20 07:13:45;;;;;;;8.32;1.92;;;;;;;3.93;100.00;101684.28;5034017;28;20034;-74
2023/12/20 07:16:11;;;;;;;5.60;1.75;;;;;;;3.90;100.00;101685.56;5040572;28;20037;-74
2023/12/20 07:18:36;;;;;;;4.53;1.70;;;;;;;3.84;100.00;101699.31;5037593;28;20049;-74
2023/12/20 07:21:02;;;;;;;5.22;1.80;;;;;;;3.90;100.00;101691.03;5039720;28;20037;-74
2023/12/20 07:23:27;;;;;;;4.57;1.67;;;;;;;3.84;100.00;101691.06;5039644;28;20029;-74
2023/12/20 07:25:53;;;;;;;6.78;1.92;;;;;;;3.79;100.00;101681.59;5039509;28;20041;-74
2023/12/20 07:28:18;;;;;;;7.57;2.13;;;;;;;3.72;100.00;101690.94;5039479;28;20033;-73
2023/12/20 07:30:44;;;;;;;7.78;1.88;;;;;;;3.70;100.00;101687.56;5039349;28;20068;-76
2023/12/20 07:33:10;;;;;;;4.82;1.77;;;;;;;3.71;100.00;101667.28;5005755;28;20037;-73
2023/12/20 07:35:35;;;;;;;5.43;1.95;;;;;;;3.69;100.00;101667.47;5039589;28;20026;-73
2023/12/20 07:38:02;;;;;;;5.45;2.10;;;;;;;3.63;100.00;101678.53;5039566;28;20040;-73
2023/12/20 07:40:27;;;;;;;7.18;1.85;;;;;;;3.63;100.00;101679.34;5039577;28;20030;-73
2023/12/20 07:42:53;;;;;;;7.90;1.90;;;;;;;3.64;100.00;101685.69;5039270;28;20040;-74
2023/12/20 07:45:18;;;;;;;6.03;1.98;;;;;;;3.60;100.00;101684.47;5039426;28;20029;-73
2023/12/20 07:47:44;;;;;;;8.85;2.22;;;;;;;3.60;100.00;101687.22;5038798;28;20033;-73
2023/12/20 07:50:10;;;;;;;5.90;1.60;;;;;;;3.60;100.00;101684.47;5042074;28;20025;-73
2023/12/20 07:52:35;;;;;;;7.20;2.05;;;;;;;3.56;100.00;101684.03;5039001;28;20029;-73
2023/12/20 07:55:01;;;;;;;8.68;1.95;;;;;;;3.47;100.00;101696.34;5039107;28;20034;-73
2023/12/20 07:57:29;;;;;;;5.72;2.17;;;;;;;3.44;100.00;101702.25;5037684;28;20482;-74
2023/12/20 07:59:55;;;;;;;7.97;2.25;;;;;;;3.43;100.00;101695.09;5038953;28;20029;-73
2023/12/20 08:02:20;;;;;;;5.95;2.13;;;;;;;3.43;100.00;101690.44;5038665;28;20040;-73
2023/12/20 08:04:46;;;;;;;6.80;2.45;;;;;;;3.45;100.00;101682.81;5035446;28;20025;-73
2023/12/20 08:07:11;;;;;;;7.10;2.13;;;;;;;3.45;100.00;101663.59;5048827;28;20086;-73
2023/12/20 08:09:37;;;;;;;8.32;2.20;;;;;;;3.44;100.00;101658.31;5032804;28;20026;-73
2023/12/20 08:12:02;;;;;;;6.38;2.05;;;;;;;3.38;100.00;101660.03;5035795;28;20500;-74
2023/12/20 08:14:28;;;;;;;7.97;2.38;;;;;;;3.41;100.00;101667.00;5031488;28;20100;-73
2023/12/20 08:16:53;;;;;;;5.75;2.15;;;;;;;3.41;100.00;101672.50;5029152;28;20029;-74
2023/12/20 08:19:19;;;;;;;5.47;2.10;;;;;;;3.40;100.00;101679.03;5027185;28;20521;-74
2023/12/20 08:21:44;;;;;;;7.03;2.25;;;;;;;3.38;100.00;101692.16;5025231;28;20029;-74
2023/12/20 08:24:10;;;;;;;3.95;2.00;;;;;;;3.39;100.00;101685.59;5026596;28;20394;-74
2023/12/20 08:26:35;;;;;;;5.10;2.30;;;;;;;3.34;100.00;101686.25;5029498;28;20057;-73
2023/12/20 08:29:01;;;;;;;6.10;2.20;;;;;;;3.38;100.00;101697.66;5028491;28;20037;-74
2023/12/20 08:31:26;;;;;;;4.53;2.10;;;;;;;3.39;100.00;101704.81;5030295;28;20040;-74
2023/12/20 08:33:53;;;;;;;6.15;2.22;;;;;;;3.40;100.00;101711.97;5038835;28;20029;-74
2023/12/20 08:36:21;;;;;;;6.53;2.25;;;;;;;3.45;100.00;101706.69;5021081;28;20057;-74
2023/12/20 08:38:47;;;;;;;7.32;2.10;;;;;;;3.50;100.00;101715.13;5030927;28;20505;-74
2023/12/20 08:41:13;;;;;;;10.02;2.20;;;;;;;3.56;100.00;101703.25;5024330;28;20030;-74
2023/12/20 08:43:40;;;;;;;7.13;2.10;;;;;;;3.62;100.00;101707.88;5036747;28;20086;-74
2023/12/20 08:46:09;;;;;;;10.30;2.50;;;;;;;3.70;100.00;101715.03;5037861;28;20087;-74
2023/12/20 08:48:35;;;;;;;12.82;2.83;;;;;;;3.79;100.00;101722.81;5038222;28;20041;-74
2023/12/20 08:51:01;;;;;;;5.68;2.35;;;;;;;3.81;100.00;101720.66;5039669;28;20473;-73
2023/12/20 08:53:26;;;;;;;7.65;2.13;;;;;;;3.91;100.00;101724.88;5038164;28;20048;-73
2023/12/20 08:55:52;;;;;;;10.55;2.65;;;;;;;3.92;100.00;101721.88;5037999;28;20033;-73
2023/12/20 08:58:17;;;;;;;7.68;2.35;;;;;;;3.95;100.00;101726.09;5037986;28;20025;-73
2023/12/20 09:00:43;;;;;;;7.43;2.17;;;;;;;3.99;100.00;101716.34;5019668;28;20666;-73
2023/12/20 09:03:09;;;;;;;8.10;2.50;;;;;;;4.01;100.00;101720.56;5037764;28;20025;-72
2023/12/20 09:05:34;;;;;;;11.52;2.22;;;;;;;4.14;100.00;101705.88;5037504;28;20038;-73
2023/12/20 09:08:00;;;;;;;9.82;2.78;;;;;;;4.24;100.00;101711.75;5049691;28;20509;-73
2023/12/20 09:10:25;;;;;;;7.28;2.33;;;;;;;4.32;100.00;101715.28;5037635;28;20034;-73
2023/12/20 09:12:51;;;;;;;9.25;2.70;;;;;;;4.39;100.00;101738.91;5019749;28;20032;-73
2023/12/20 09:15:17;;;;;;;7.10;2.13;;;;;;;4.36;100.00;101733.03;5033189;28;20482;-73
2023/12/20 09:17:43;;;;;;;10.73;2.72;;;;;;;4.44;100.00;101736.34;5036941;28;20095;-73
2023/12/20 09:20:09;;;;;;;8.80;2.55;;;;;;;4.54;100.00;101730.34;5037289;28;20402;-72
2023/12/20 09:22:35;;;;;;;11.18;2.63;;;;;;;4.66;100.00;101728.53;5036402;28;20036;-72
2023/12/20 09:25:01;;;;;;;8.85;2.80;;;;;;;4.77;100.00;101724.22;5036067;28;20075;-72
2023/12/20 09:27:27;;;;;;;10.05;2.83;;;;;;;4.89;100.00;101710.56;5037451;28;20033;-73
2023/12/20 09:29:53;;;;;;;10.88;2.83;;;;;;;4.99;100.00;101716.38;5036959;28;20035;-73
2023/12/20 09:32:20;;;;;;;9.93;2.80;;;;;;;5.09;100.00;101713.94;5037167;28;20033;-73
2023/12/20 09:34:46;;;;;;;9.73;2.47;;;;;;;5.19;100.00;101707.91;5037096;28;20051;-73
2023/12/20 09:37:13;;;;;;;9.40;2.53;;;;;;;5.29;100.00;101699.09;5032326;28;20045;-73
2023/12/20 09:39:39;;;;;;;14.27;2.83;;;;;;;5.35;100.00;101704.53;5034115;28;20537;-73
2023/12/20 09:42:05;;;;;;;10.73;2.70;;;;;;;5.46;100.00;101713.09;5033097;28;20026;-73
2023/12/20 09:44:31;;;;;;;10.65;3.08;;;;;;;5.56;100.00;101699.63;5030689;28;20079;-73
2023/12/20 09:46:57;;;;;;;10.25;3.05;;;;;;;5.64;100.00;101698.47;5036820;28;20041;-73
2023/12/20 09:49:23;;;;;;;9.90;2.78;;;;;;;5.75;100.00;101708.72;5032962;28;20437;-73
2023/12/20 09:51:50;;;;;;;13.48;3.38;;;;;;;5.86;100.00;101705.16;5027768;28;20045;-73
2023/12/20 09:54:18;;;;;;;14.27;2.90;;;;;;;5.99;100.00;101707.75;5022413;28;20124;-73
2023/12/20 09:56:44;;;;;;;13.88;2.85;;;;;;;6.12;100.00;101711.38;5018868;28;20115;-73
2023/12/20 09:59:10;;;;;;;14.30;3.35;;;;;;;6.24;100.00;101720.53;5021277;28;20053;-73
2023/12/20 10:01:36;;;;;;;15.65;3.67;;;;;;;6.38;100.00;101713.75;5022482;28;20034;-73
2023/12/20 10:04:02;;;;;;;14.85;3.72;;;;;;;6.51;100.00;101717.34;5021927;28;20160;-73
2023/12/20 10:06:28;;;;;;;11.80;3.13;;;;;;;6.62;100.00;101719.28;5026418;28;20038;-73
2023/12/20 10:08:53;;;;;;;17.10;3.92;;;;;;;6.73;100.00;101715.69;5025963;28;20037;-73
2023/12/20 10:11:19;;;;;;;14.27;3.33;;;;;;;6.83;100.00;101727.00;5029251;28;20029;-72
2023/12/20 10:13:45;;;;;;;16.95;3.60;;;;;;;6.92;100.00;101733.00;5026268;28;20048;-73
2023/12/20 10:16:11;;;;;;;13.60;3.08;;;;;;;6.98;100.00;101729.28;5012373;28;20057;-73
2023/12/20 10:18:36;;;;;;;15.60;3.55;;;;;;;7.07;100.00;101727.00;5025745;28;20057;-73
2023/12/20 10:21:03;;;;;;;7.63;3.00;;;;;;;7.13;100.00;101740.69;5027447;28;20103;-73
2023/12/20 10:23:28;;;;;;;9.38;2.92;;;;;;;7.21;100.00;101728.41;5026584;28;20079;-73
2023/12/20 10:25:58;;;;;;;14.18;3.08;;;;;;;7.30;100.00;101726.97;5027407;28;20037;-73
2023/12/20 10:28:27;;;;;;;17.05;3.90;;;;;;;7.41;100.00;101721.66;5027648;28;20029;-73
2023/12/20 10:30:53;;;;;;;16.50;3.67;;;;;;;7.46;100.00;101730.91;5027154;28;20025;-73
2023/12/20 10:33:28;;;;;;;17.23;3.40;;;;;;;7.54;100.00;101732.44;5028234;28;20429;-73
2023/12/20 10:35:55;;;;;;;24.38;4.55;;;;;;;7.61;100.00;101722.13;5024433;28;20025;-73
2023/12/20 10:38:22;;;;;;;14.93;3.60;;;;;;;7.68;100.00;101725.56;5026064;28;20091;-73
2023/12/20 10:40:47;;;;;;;13.02;2.95;;;;;;;7.78;100.00;101722.19;5025978;28;20034;-73
2023/12/20 10:43:14;;;;;;;10.55;2.90;;;;;;;7.84;100.00;101710.13;5055061;28;20044;-73
2023/12/20 10:45:43;;;;;;;15.65;2.92;;;;;;;7.91;100.00;101709.97;5020466;28;20728;-73
2023/12/20 10:48:10;;;;;;;14.30;3.88;;;;;;;7.97;100.00;101695.16;5026550;28;20109;-73
2023/12/20 10:50:36;;;;;;;16.65;3.55;;;;;;;8.04;100.00;101698.59;5026450;28;20040;-73
2023/12/20 10:53:01;;;;;;;19.33;3.13;;;;;;;8.11;100.00;101688.22;5028875;28;20041;-73
2023/12/20 10:55:27;;;;;;;13.68;2.92;;;;;;;8.20;100.00;101685.91;4998474;28;20041;-73
2023/12/20 10:58:11;;;;;;;13.95;3.30;;;;;;;8.25;100.00;101695.13;5030679;28;20060;-73
2023/12/20 11:00:43;;;;;;;10.13;2.70;;;;;;;8.34;100.00;101687.25;5036643;28;20020;-73
2023/12/20 11:03:09;;;;;;;13.37;3.17;;;;;;;8.42;100.00;101678.56;5041702;28;20043;-73
2023/12/20 11:05:50;;;;;;;17.55;2.95;;;;;;;8.46;100.00;101678.88;5051571;28;20033;-74
2023/12/20 11:08:44;;;;;;;15.60;2.80;;;;;;;8.58;100.00;101676.91;5044894;28;20045;-73
2023/12/20 11:11:14;;;;;;;16.05;3.78;;;;;;;8.66;100.00;101673.69;5027736;28;20087;-73
2023/12/20 11:14:00;;;;;;;15.63;3.40;;;;;;;8.71;100.00;101665.44;5025358;28;20026;-73
2023/12/20 11:16:25;;;;;;;19.75;3.95;;;;;;;8.78;100.00;101664.47;5029894;28;20552;-73